Time;durP1;ratioP1;P1;durP2;ratioP2;P2;SDS_P1;SDS_P2;PMS_P1;PMS_P2;Temp;Humidity;BMP_temperature;BMP_pressure;BME280_temperature;BME280_humidity;BME280_pressure;Samples;Min_cycle;Max_cycle;Signal;HPM_P1;HPM_P2
2022/01/16 00:00:19;;;;;;;40.80;27.60;;;;;;;2.88;74.46;102323.59;5088743;28;20051;-66
2022/01/16 00:05:19;;;;;;;47.10;28.40;;;;;;;2.84;73.80;102344.16;5094690;28;20043;-66
2022/01/16 00:07:44;;;;;;;42.97;27.63;;;;;;;2.82;74.24;102337.94;5100514;28;20035;-66
2022/01/16 00:10:10;;;;;;;44.83;28.27;;;;;;;2.80;73.88;102337.28;5106238;27;20027;-66
2022/01/16 00:12:36;;;;;;;45.17;28.52;;;;;;;2.83;74.62;102347.88;5129050;27;20545;-66
2022/01/16 00:15:03;;;;;;;44.92;28.40;;;;;;;2.83;74.16;102345.16;5089782;28;20028;-66
2022/01/16 00:17:34;;;;;;;43.30;27.58;;;;;;;2.82;74.51;102349.78;5106772;28;20067;-65
2022/01/16 00:19:59;;;;;;;43.38;28.27;;;;;;;2.89;74.25;102350.84;5100545;28;20038;-66
2022/01/16 00:22:27;;;;;;;41.90;26.83;;;;;;;2.91;74.24;102345.19;5104829;28;20031;-65
2022/01/16 00:24:53;;;;;;;42.13;28.20;;;;;;;2.88;74.12;102337.31;5103707;28;20035;-65
2022/01/16 00:27:18;;;;;;;42.97;26.50;;;;;;;2.87;74.06;102330.06;5102804;28;20028;-65
2022/01/16 00:29:44;;;;;;;45.13;26.95;;;;;;;2.86;73.36;102314.66;5090604;28;20070;-65
2022/01/16 00:32:09;;;;;;;44.33;27.63;;;;;;;2.88;73.96;102304.38;5089630;28;20028;-65
2022/01/16 00:34:34;;;;;;;45.50;29.58;;;;;;;2.94;73.32;102307.31;5094624;28;20031;-65
2022/01/16 00:37:00;;;;;;;44.85;28.35;;;;;;;2.88;73.73;102323.59;5104575;28;20031;-65
2022/01/16 00:39:25;;;;;;;44.50;27.65;;;;;;;2.84;73.36;102327.69;5106515;28;20122;-65
2022/01/16 00:41:50;;;;;;;42.60;28.08;;;;;;;2.88;73.47;102334.56;5096544;28;20065;-65
2022/01/16 00:44:15;;;;;;;42.30;26.70;;;;;;;2.86;73.20;102322.88;5102520;28;20027;-65
2022/01/16 00:46:41;;;;;;;44.08;28.75;;;;;;;2.88;73.17;102329.94;5106237;28;20038;-65
2022/01/16 00:49:06;;;;;;;44.42;28.92;;;;;;;2.84;73.32;102314.84;5097151;28;20093;-65
2022/01/16 00:51:31;;;;;;;48.10;30.15;;;;;;;2.84;73.68;102319.47;5107962;28;20035;-65
2022/01/16 00:53:57;;;;;;;49.65;31.10;;;;;;;2.87;73.41;102339.19;5102301;28;20044;-65
2022/01/16 00:56:22;;;;;;;50.38;30.33;;;;;;;2.91;74.00;102317.78;5096388;28;20051;-65
2022/01/16 00:58:47;;;;;;;48.58;29.52;;;;;;;2.92;73.54;102294.81;5108300;28;20036;-64
2022/01/16 01:01:14;;;;;;;48.88;29.42;;;;;;;2.92;73.42;102281.94;5102652;28;20028;-65
2022/01/16 01:03:39;;;;;;;49.55;28.33;;;;;;;2.92;73.58;102283.84;5095129;28;20023;-65
2022/01/16 01:06:06;;;;;;;52.78;29.77;;;;;;;2.89;73.37;102306.09;5097059;28;20038;-65
2022/01/16 01:08:31;;;;;;;52.25;31.63;;;;;;;2.88;73.47;102287.94;5095162;28;20088;-65
2022/01/16 01:10:58;;;;;;;54.50;29.90;;;;;;;2.84;74.04;102303.88;5109508;28;20436;-65
2022/01/16 01:13:44;;;;;;;54.33;30.33;;;;;;;2.83;74.22;102314.97;5107696;28;20040;-65
2022/01/16 01:16:14;;;;;;;53.58;29.55;;;;;;;2.83;73.69;102302.16;5102113;28;20067;-65
2022/01/16 01:18:40;;;;;;;56.35;30.40;;;;;;;2.79;73.68;102291.66;5099132;28;20031;-65
2022/01/16 01:21:15;;;;;;;56.17;29.85;;;;;;;2.80;73.52;102287.91;5095595;28;20370;-65
2022/01/16 01:23:41;;;;;;;52.63;29.60;;;;;;;2.82;73.64;102280.38;5109262;28;20452;-65
2022/01/16 01:26:06;;;;;;;50.28;29.58;;;;;;;2.85;74.50;102288.25;5094735;28;20164;-65
2022/01/16 01:28:31;;;;;;;53.97;30.30;;;;;;;2.87;74.22;102294.44;5097091;28;20040;-65
2022/01/16 01:30:57;;;;;;;52.58;30.55;;;;;;;2.88;74.00;102304.38;5095309;28;20414;-65
2022/01/16 01:33:24;;;;;;;57.55;31.55;;;;;;;2.82;74.38;102294.94;5100282;28;20032;-65
2022/01/16 01:35:49;;;;;;;56.25;30.00;;;;;;;2.85;74.55;102274.56;5112846;28;20031;-65
2022/01/16 01:38:18;;;;;;;63.20;31.02;;;;;;;2.84;74.16;102237.19;5097997;28;20032;-65
2022/01/16 01:40:43;;;;;;;60.78;32.47;;;;;;;2.81;73.79;102218.34;5095975;28;20031;-65
2022/01/16 01:51:15;;;;;;;67.13;32.33;;;;;;;2.81;74.52;102245.75;5103344;28;20039;-65
2022/01/16 01:53:42;;;;;;;63.72;33.20;;;;;;;2.79;75.10;102262.38;5093993;28;20048;-65
2022/01/16 01:56:10;;;;;;;64.93;32.53;;;;;;;2.81;75.13;102265.81;5108196;28;20043;-65
2022/01/16 01:58:36;;;;;;;64.35;32.63;;;;;;;2.83;75.34;102287.56;5111995;28;20436;-64
2022/01/16 02:01:02;;;;;;;62.30;32.80;;;;;;;2.85;74.74;102282.78;5093585;28;20028;-65
2022/01/16 02:03:42;;;;;;;67.03;34.58;;;;;;;2.85;74.81;102291.00;5095849;28;20032;-65
2022/01/16 02:06:23;;;;;;;63.72;31.75;;;;;;;2.87;75.12;102292.56;5094119;28;20039;-65
2022/01/16 02:08:51;;;;;;;65.57;31.85;;;;;;;2.82;75.41;102310.53;5102584;28;20112;-65
2022/01/16 02:11:18;;;;;;;68.40;32.50;;;;;;;2.82;74.74;102297.66;5110557;28;20042;-65
2022/01/16 02:13:50;;;;;;;68.70;32.85;;;;;;;2.85;75.12;102315.69;5109781;28;20056;-65
2022/01/16 02:30:57;;;;;;;54.60;29.90;;;;;;;2.88;74.06;102309.88;5099831;28;20063;-65
2022/01/16 02:33:21;;;;;;;45.70;28.83;;;;;;;2.87;73.88;102325.47;5105802;28;20396;-65
2022/01/16 02:35:45;;;;;;;49.97;30.65;;;;;;;2.86;73.57;102329.22;5110168;28;20051;-64
2022/01/16 02:38:11;;;;;;;51.05;28.98;;;;;;;2.88;73.61;102326.31;5102441;28;20111;-64
2022/01/16 02:40:40;;;;;;;51.72;29.40;;;;;;;2.87;73.40;102327.34;5095309;28;20484;-65
2022/01/16 02:43:05;;;;;;;50.80;29.77;;;;;;;2.84;74.18;102319.47;5103331;28;20032;-65
2022/01/16 02:45:33;;;;;;;52.70;29.88;;;;;;;2.82;73.76;102316.00;5094832;28;20027;-65
2022/01/16 02:48:02;;;;;;;55.47;30.17;;;;;;;2.78;74.08;102310.00;5105213;28;20042;-65
2022/01/16 02:50:28;;;;;;;52.25;30.23;;;;;;;2.83;74.06;102301.28;5103080;28;20451;-65
2022/01/16 02:52:53;;;;;;;50.83;29.95;;;;;;;2.77;74.48;102304.69;5110265;28;20038;-65
2022/01/16 02:55:21;;;;;;;59.92;32.03;;;;;;;2.78;74.24;102303.66;5101083;28;20127;-65
2022/01/16 02:57:50;;;;;;;55.15;31.10;;;;;;;2.81;73.91;102289.63;5111752;28;20036;-65
2022/01/16 03:00:16;;;;;;;56.13;30.30;;;;;;;2.74;74.14;102275.72;5103542;28;20027;-65
2022/01/16 03:02:42;;;;;;;55.78;31.27;;;;;;;2.72;74.62;102274.19;5092935;28;20032;-65
2022/01/16 03:05:08;;;;;;;61.42;33.13;;;;;;;2.71;74.76;102273.31;5093353;28;20030;-65
2022/01/16 03:07:33;;;;;;;61.30;31.58;;;;;;;2.72;74.72;102268.69;5103522;28;20043;-65
2022/01/16 03:12:38;;;;;;;63.63;33.40;;;;;;;2.69;74.76;102250.69;5092849;28;20028;-65
2022/01/16 03:15:06;;;;;;;61.25;33.35;;;;;;;2.68;74.51;102249.84;5093514;28;20039;-65
2022/01/16 03:17:39;;;;;;;63.08;33.78;;;;;;;2.74;74.70;102252.94;5107035;28;20031;-65
2022/01/16 03:22:48;;;;;;;66.10;33.72;;;;;;;2.82;74.79;102252.94;5098711;28;19969;-65
2022/01/16 03:25:16;;;;;;;66.60;35.05;;;;;;;2.78;74.99;102249.69;5106842;28;20031;-65
2022/01/16 03:27:41;;;;;;;67.70;36.42;;;;;;;2.76;74.41;102245.41;5105766;28;20027;-65
2022/01/16 03:30:07;;;;;;;61.75;34.30;;;;;;;2.78;74.58;102244.19;5104593;28;20077;-65
2022/01/16 03:32:32;;;;;;;70.10;36.70;;;;;;;2.78;74.74;102246.09;5092062;28;20119;-64
2022/01/16 03:34:58;;;;;;;68.93;36.90;;;;;;;2.76;75.31;102245.41;5104061;28;20038;-65
2022/01/16 03:37:23;;;;;;;65.63;35.58;;;;;;;2.81;75.39;102245.75;5094822;28;20028;-65
2022/01/16 03:39:48;;;;;;;68.25;38.00;;;;;;;2.79;75.33;102245.03;5097145;28;20119;-64
2022/01/16 03:42:14;;;;;;;71.30;37.83;;;;;;;2.83;74.82;102246.44;5108811;28;20029;-65
2022/01/16 03:44:39;;;;;;;66.03;36.60;;;;;;;2.85;75.14;102245.25;5100650;28;20035;-65
2022/01/16 03:47:05;;;;;;;70.70;37.85;;;;;;;2.90;74.65;102239.25;5109213;28;20119;-65
2022/01/16 03:49:32;;;;;;;70.10;38.10;;;;;;;2.91;75.31;102243.72;5109211;28;20050;-65
2022/01/16 03:51:58;;;;;;;67.50;37.58;;;;;;;2.92;74.79;102243.53;5110355;28;20076;-65
2022/01/16 03:54:27;;;;;;;68.93;38.22;;;;;;;2.91;75.46;102246.47;5099196;28;20043;-65
2022/01/16 03:56:53;;;;;;;66.32;37.95;;;;;;;2.97;75.07;102242.19;5111344;28;20380;-65
2022/01/16 03:59:19;;;;;;;70.97;40.55;;;;;;;2.99;74.95;102243.75;5102298;28;20046;-65
2022/01/16 04:01:44;;;;;;;68.53;38.65;;;;;;;3.03;74.58;102239.63;5103249;28;20031;-65
2022/01/16 04:04:10;;;;;;;66.38;38.10;;;;;;;3.03;74.72;102241.53;5106236;28;20107;-64
2022/01/16 04:06:36;;;;;;;68.80;39.35;;;;;;;3.00;74.57;102248.19;5092820;28;20040;-65
2022/01/16 04:09:03;;;;;;;69.18;38.35;;;;;;;2.97;74.41;102256.75;5105975;28;20080;-64
2022/01/16 04:11:29;;;;;;;70.40;40.00;;;;;;;2.94;75.36;102248.84;5101741;28;20028;-64
2022/01/16 04:14:05;;;;;;;66.72;38.65;;;;;;;2.97;75.26;102242.19;5091432;28;20477;-65
2022/01/16 04:16:31;;;;;;;67.63;38.95;;;;;;;3.00;75.39;102242.69;5103608;28;20026;-65
2022/01/16 04:18:56;;;;;;;64.80;38.63;;;;;;;3.02;75.04;102254.34;5104603;28;20031;-65
2022/01/16 04:21:24;;;;;;;67.47;39.85;;;;;;;3.03;75.61;102247.00;5109378;28;20024;-65
2022/01/16 04:23:50;;;;;;;68.32;39.13;;;;;;;3.04;75.00;102240.47;5105095;28;20482;-64
2022/01/16 04:26:17;;;;;;;66.00;41.17;;;;;;;3.03;74.91;102236.03;5094553;28;20039;-64
2022/01/16 04:28:43;;;;;;;64.18;39.38;;;;;;;3.06;75.63;102241.16;5092606;28;20165;-63
2022/01/16 04:31:09;;;;;;;64.28;38.97;;;;;;;3.04;75.31;102244.06;5090412;28;20119;-64
2022/01/16 04:33:35;;;;;;;62.80;38.92;;;;;;;3.03;75.28;102236.88;5098055;28;20028;-65
2022/01/16 04:36:00;;;;;;;63.88;39.17;;;;;;;3.03;75.43;102242.38;5108469;28;20035;-65
2022/01/16 04:38:26;;;;;;;67.75;40.58;;;;;;;3.07;75.42;102251.13;5108223;28;20398;-65
2022/01/16 04:43:53;;;;;;;67.43;39.17;;;;;;;3.12;75.04;102243.22;5111614;28;20043;-65
2022/01/16 04:46:20;;;;;;;64.38;39.85;;;;;;;3.11;75.38;102231.41;5099384;28;20024;-65
2022/01/16 04:48:46;;;;;;;62.75;38.85;;;;;;;3.13;75.33;102233.97;5094141;28;20156;-65
2022/01/16 04:51:12;;;;;;;59.33;38.45;;;;;;;3.15;75.22;102229.19;5103598;28;20111;-65
2022/01/16 04:53:39;;;;;;;60.88;38.33;;;;;;;3.16;75.25;102229.00;5099869;28;20126;-64
2022/01/16 04:56:05;;;;;;;62.03;38.65;;;;;;;3.17;75.06;102224.38;5104476;28;20113;-65
2022/01/16 04:58:30;;;;;;;64.65;41.10;;;;;;;3.16;75.43;102220.78;5096251;28;20036;-64
2022/01/16 05:00:56;;;;;;;62.22;39.10;;;;;;;3.18;75.76;102220.59;5091870;28;20042;-65
2022/01/16 05:03:23;;;;;;;61.38;39.78;;;;;;;3.16;75.36;102228.16;5100853;28;20532;-65
2022/01/16 05:05:49;;;;;;;61.13;38.45;;;;;;;3.18;75.51;102228.81;5108430;28;20024;-65
2022/01/16 05:08:14;;;;;;;62.97;40.35;;;;;;;3.15;75.16;102216.31;5103713;28;20028;-65
2022/01/16 05:10:39;;;;;;;59.65;38.55;;;;;;;3.19;75.57;102217.69;5100690;28;20050;-64
2022/01/16 05:13:28;;;;;;;66.60;40.33;;;;;;;3.19;75.66;102203.97;5089679;28;20032;-65
2022/01/16 05:18:40;;;;;;;63.42;39.70;;;;;;;3.23;75.75;102209.97;5102743;28;20049;-65
2022/01/16 05:21:06;;;;;;;61.53;38.83;;;;;;;3.22;75.69;102219.22;5098836;28;20135;-65
2022/01/16 05:23:32;;;;;;;65.13;40.30;;;;;;;3.24;75.44;102216.31;5110757;28;20478;-65
2022/01/16 05:25:59;;;;;;;60.35;39.30;;;;;;;3.24;75.68;102205.34;5095747;28;20070;-65
2022/01/16 05:28:24;;;;;;;61.13;39.42;;;;;;;3.24;76.26;102205.34;5089644;28;20040;-65
2022/01/16 05:30:50;;;;;;;61.80;41.00;;;;;;;3.25;76.15;102207.91;5096635;28;20454;-65
2022/01/16 05:33:15;;;;;;;64.43;41.08;;;;;;;3.29;76.03;102205.66;5107699;28;20092;-65
2022/01/16 05:35:42;;;;;;;65.25;41.25;;;;;;;3.29;75.69;102213.91;5105998;28;20024;-65
2022/01/16 05:38:08;;;;;;;65.80;40.45;;;;;;;3.29;76.06;102213.91;5098340;28;20118;-66
2022/01/16 05:40:33;;;;;;;64.75;41.17;;;;;;;3.32;76.08;102219.06;5109748;28;20034;-66
2022/01/16 05:42:58;;;;;;;63.00;40.05;;;;;;;3.32;76.32;102216.31;5096029;28;20091;-66
2022/01/16 05:45:24;;;;;;;64.45;41.50;;;;;;;3.31;76.17;102218.19;5104883;28;20035;-65
2022/01/16 05:47:49;;;;;;;64.18;41.30;;;;;;;3.34;75.90;102230.69;5113812;28;20024;-66
2022/01/16 05:50:15;;;;;;;66.85;41.80;;;;;;;3.35;75.83;102235.19;5101578;28;20036;-66
2022/01/16 05:52:40;;;;;;;68.18;41.97;;;;;;;3.36;76.37;102236.91;5094997;28;20046;-66
2022/01/16 05:55:06;;;;;;;65.07;41.67;;;;;;;3.37;76.53;102244.09;5106076;28;20054;-65
2022/01/16 05:57:32;;;;;;;65.80;42.65;;;;;;;3.40;76.00;102228.13;5097009;28;20032;-64
2022/01/16 05:59:58;;;;;;;65.20;42.38;;;;;;;3.39;75.95;102234.66;5094013;28;20141;-64
2022/01/16 06:02:25;;;;;;;68.97;43.13;;;;;;;3.39;76.48;102228.31;5108699;28;20031;-65
2022/01/16 06:04:50;;;;;;;66.55;42.10;;;;;;;3.41;76.53;102234.47;5112078;28;20020;-65
2022/01/16 06:07:15;;;;;;;61.67;40.63;;;;;;;3.43;76.61;102227.81;5109797;28;20453;-65
2022/01/16 06:09:41;;;;;;;63.08;40.92;;;;;;;3.44;75.95;102225.91;5108605;28;20442;-64
2022/01/16 06:12:07;;;;;;;63.63;41.47;;;;;;;3.48;76.80;102235.50;5107417;28;20543;-65
2022/01/16 06:14:32;;;;;;;67.60;43.53;;;;;;;3.49;76.02;102230.88;5111233;28;20458;-65
2022/01/16 06:16:57;;;;;;;67.78;44.00;;;;;;;3.48;76.20;102229.16;5112211;28;20055;-64
2022/01/16 06:19:22;;;;;;;70.45;44.92;;;;;;;3.48;76.33;102230.03;5100960;28;20091;-65
2022/01/16 06:21:48;;;;;;;69.18;43.75;;;;;;;3.49;76.68;102228.13;5109637;28;20035;-65
2022/01/16 06:24:14;;;;;;;73.43;44.80;;;;;;;3.48;76.12;102226.44;5108332;28;20031;-65
2022/01/16 06:26:39;;;;;;;67.63;44.00;;;;;;;3.47;76.87;102231.06;5113363;28;20038;-65
2022/01/16 06:29:05;;;;;;;69.22;44.47;;;;;;;3.48;76.83;102232.75;5101668;28;20032;-64
2022/01/16 06:31:31;;;;;;;70.78;43.85;;;;;;;3.49;77.24;102228.97;5092645;28;20024;-65
2022/01/16 06:33:59;;;;;;;72.80;43.83;;;;;;;3.52;76.78;102231.38;5097481;28;20368;-65
2022/01/16 06:36:24;;;;;;;69.70;43.83;;;;;;;3.51;76.79;102251.66;5096300;28;20036;-65
2022/01/16 06:38:52;;;;;;;70.97;43.47;;;;;;;3.54;77.29;102259.53;5111015;28;20054;-65
2022/01/16 06:41:17;;;;;;;70.78;44.10;;;;;;;3.57;76.99;102266.56;5102998;28;20054;-65
2022/01/16 06:43:43;;;;;;;74.18;45.03;;;;;;;3.60;76.79;102263.47;5103109;28;20120;-64
2022/01/16 06:46:09;;;;;;;66.93;43.67;;;;;;;3.59;77.09;102268.09;5101033;28;20019;-65
2022/01/16 06:48:34;;;;;;;70.53;45.95;;;;;;;3.59;77.62;102262.63;5094679;28;20032;-65
2022/01/16 06:51:00;;;;;;;72.05;44.38;;;;;;;3.62;76.84;102265.03;5101368;28;20126;-65
2022/01/16 06:53:26;;;;;;;71.40;43.13;;;;;;;3.63;77.12;102265.88;5109852;28;20050;-65
2022/01/16 06:55:51;;;;;;;67.53;42.75;;;;;;;3.63;77.18;102266.72;5107901;28;20035;-64
2022/01/16 06:58:16;;;;;;;63.67;41.40;;;;;;;3.67;76.80;102267.25;5108465;28;20038;-65
2022/01/16 07:00:42;;;;;;;70.18;43.08;;;;;;;3.69;76.81;102270.66;5106847;28;20020;-65
2022/01/16 07:03:07;;;;;;;67.20;42.58;;;;;;;3.73;77.02;102276.66;5112927;28;20390;-65
2022/01/16 07:05:32;;;;;;;70.63;43.78;;;;;;;3.73;76.77;102283.00;5100091;28;20070;-65
2022/01/16 07:07:58;;;;;;;66.68;41.80;;;;;;;3.76;77.10;102276.31;5113011;28;20031;-65
2022/01/16 07:10:24;;;;;;;64.97;42.88;;;;;;;3.73;77.23;102276.66;5106116;28;20081;-64
2022/01/16 07:12:49;;;;;;;69.97;42.72;;;;;;;3.77;76.84;102284.38;5092766;28;20533;-65
2022/01/16 07:15:14;;;;;;;65.85;41.50;;;;;;;3.77;76.96;102295.38;5096630;28;20036;-64
2022/01/16 07:17:39;;;;;;;64.25;40.47;;;;;;;3.79;77.42;102298.81;5095707;28;20063;-65
2022/01/16 07:20:05;;;;;;;68.25;40.95;;;;;;;3.82;77.20;102309.47;5091729;28;20044;-65
2022/01/16 07:22:31;;;;;;;66.93;40.42;;;;;;;3.81;77.28;102306.88;5098836;28;20765;-65
2022/01/16 07:24:56;;;;;;;70.63;41.38;;;;;;;3.83;77.11;102319.41;5108866;28;20023;-64
2022/01/16 07:27:21;;;;;;;66.93;41.50;;;;;;;3.83;77.09;102324.03;5109122;28;20036;-65
2022/01/16 07:29:47;;;;;;;64.05;38.60;;;;;;;3.83;76.99;102326.78;5100201;28;20028;-65
2022/01/16 07:32:13;;;;;;;64.03;40.67;;;;;;;3.81;77.28;102334.34;5102713;28;20046;-64
2022/01/16 07:34:38;;;;;;;66.32;39.85;;;;;;;3.84;76.82;102326.59;5104195;28;20036;-65
2022/01/16 07:37:04;;;;;;;61.42;39.15;;;;;;;3.82;77.14;102344.31;5111439;28;20098;-65
2022/01/16 07:39:29;;;;;;;65.93;40.38;;;;;;;3.84;76.91;102344.97;5092662;28;20122;-65
2022/01/16 07:41:55;;;;;;;66.20;40.22;;;;;;;3.86;76.91;102345.69;5106809;28;20024;-65
2022/01/16 07:44:20;;;;;;;65.57;38.50;;;;;;;3.87;77.40;102341.91;5104839;28;20472;-65
2022/01/16 07:46:46;;;;;;;57.50;38.15;;;;;;;3.87;77.32;102329.00;5102071;28;20394;-65
2022/01/16 07:49:11;;;;;;;61.15;38.38;;;;;;;3.90;77.08;102342.41;5093579;28;20032;-65
2022/01/16 07:51:36;;;;;;;60.88;39.13;;;;;;;3.92;77.07;102353.22;5099689;28;20028;-65
2022/01/16 07:54:02;;;;;;;58.40;37.28;;;;;;;3.94;77.17;102348.41;5111137;28;20074;-65
2022/01/16 07:56:27;;;;;;;59.17;38.28;;;;;;;3.96;76.80;102359.22;5104270;28;20450;-65
2022/01/16 07:58:53;;;;;;;63.83;37.30;;;;;;;3.99;77.01;102364.38;5108400;28;20028;-65
2022/01/16 08:01:18;;;;;;;62.95;39.20;;;;;;;4.00;76.78;102366.94;5098985;28;20826;-64
2022/01/16 08:03:43;;;;;;;70.57;38.97;;;;;;;3.99;77.01;102369.88;5101819;28;20063;-65
2022/01/16 08:06:10;;;;;;;62.25;37.50;;;;;;;4.00;76.84;102369.69;5111811;28;20386;-65
2022/01/16 08:08:37;;;;;;;65.63;39.50;;;;;;;4.04;77.17;102364.72;5099997;28;20038;-65
2022/01/16 08:11:02;;;;;;;58.50;36.78;;;;;;;4.05;77.23;102370.06;5092571;28;20020;-65
2022/01/16 08:13:27;;;;;;;64.40;38.60;;;;;;;4.06;77.47;102370.91;5091271;28;20038;-65
2022/01/16 08:15:53;;;;;;;65.28;38.78;;;;;;;4.08;77.50;102366.06;5109421;28;20050;-65
2022/01/16 08:18:18;;;;;;;60.65;37.42;;;;;;;4.10;77.21;102366.78;5092776;28;20032;-64
2022/01/16 08:20:43;;;;;;;62.30;37.70;;;;;;;4.09;77.46;102351.34;5102708;28;20031;-64
2022/01/16 08:23:08;;;;;;;62.58;37.67;;;;;;;4.12;77.40;102350.97;5103777;28;20036;-65
2022/01/16 08:25:34;;;;;;;64.13;39.03;;;;;;;4.08;77.63;102344.94;5102992;28;20035;-64
2022/01/16 08:27:59;;;;;;;62.00;37.80;;;;;;;4.10;77.39;102348.41;5092766;28;20028;-64
2022/01/16 08:30:24;;;;;;;64.00;37.88;;;;;;;4.13;77.56;102352.69;5091712;28;20040;-65
2022/01/16 08:32:50;;;;;;;62.05;37.53;;;;;;;4.13;77.53;102355.44;5098137;28;20052;-65
2022/01/16 08:35:15;;;;;;;63.30;37.42;;;;;;;4.17;77.37;102348.56;5099625;28;20386;-65
2022/01/16 08:37:41;;;;;;;72.10;38.58;;;;;;;4.20;77.58;102350.94;5091795;28;20028;-65
2022/01/16 08:40:07;;;;;;;64.53;37.95;;;;;;;4.17;77.32;102346.69;5107680;28;20028;-65
2022/01/16 08:42:32;;;;;;;65.72;38.75;;;;;;;4.20;77.61;102353.69;5096521;28;20031;-65
2022/01/16 08:45:00;;;;;;;65.60;38.83;;;;;;;4.17;77.95;102363.16;5098135;28;20390;-66
2022/01/16 08:47:26;;;;;;;61.42;37.60;;;;;;;4.18;77.48;102348.38;5104055;28;20036;-64
2022/01/16 08:49:52;;;;;;;62.38;37.13;;;;;;;4.19;78.03;102352.84;5100128;28;20016;-63
2022/01/16 08:52:19;;;;;;;66.00;38.15;;;;;;;4.18;78.15;102364.88;5108106;28;20028;-63
2022/01/16 08:54:44;;;;;;;66.65;38.08;;;;;;;4.23;78.15;102367.09;5107298;28;20027;-63
2022/01/16 08:57:10;;;;;;;62.65;35.78;;;;;;;4.34;79.12;102371.38;5103369;28;20504;-64
2022/01/16 08:59:35;;;;;;;68.30;37.45;;;;;;;4.31;77.76;102374.47;5107207;28;20042;-63
2022/01/16 09:02:00;;;;;;;70.75;38.50;;;;;;;4.29;77.78;102373.81;5109995;28;20027;-64
2022/01/16 09:04:25;;;;;;;63.95;37.85;;;;;;;4.30;77.76;102384.59;5104099;28;20055;-63
2022/01/16 09:06:51;;;;;;;66.00;38.95;;;;;;;4.32;77.64;102384.41;5102737;28;20031;-63
2022/01/16 09:09:16;;;;;;;64.30;39.10;;;;;;;4.32;77.95;102378.94;5104048;28;20077;-63
2022/01/16 09:11:41;;;;;;;69.95;39.13;;;;;;;4.30;78.54;102389.25;5093870;28;20501;-63
2022/01/16 09:14:07;;;;;;;69.97;39.67;;;;;;;4.28;78.31;102386.66;5107778;28;20035;-64
2022/01/16 09:16:33;;;;;;;69.57;40.20;;;;;;;4.28;78.43;102391.31;5115374;28;20032;-64
2022/01/16 09:18:59;;;;;;;69.53;40.60;;;;;;;4.27;78.79;102401.44;5094800;28;20367;-64
2022/01/16 09:21:24;;;;;;;72.85;39.85;;;;;;;4.29;78.54;102401.28;5100625;28;20031;-64
2022/01/16 09:23:53;;;;;;;78.68;41.17;;;;;;;4.32;78.38;102404.56;5110563;28;20031;-64
2022/01/16 09:26:18;;;;;;;74.65;40.75;;;;;;;4.34;78.44;102402.47;5109227;28;20386;-63
2022/01/16 09:28:45;;;;;;;77.95;42.38;;;;;;;4.35;78.96;102408.81;5099428;28;20024;-64
2022/01/16 09:31:10;;;;;;;77.55;42.50;;;;;;;4.37;78.86;102409.53;5112190;28;20032;-64
2022/01/16 09:33:37;;;;;;;77.45;43.78;;;;;;;4.40;78.47;102409.16;5107108;28;20043;-63
2022/01/16 09:36:04;;;;;;;77.65;44.00;;;;;;;4.39;78.82;102413.78;5104037;28;20031;-64
2022/01/16 09:38:29;;;;;;;80.75;44.42;;;;;;;4.42;78.83;102415.34;5111599;28;20028;-62
2022/01/16 09:40:55;;;;;;;82.78;44.45;;;;;;;4.45;78.89;102430.66;5097259;28;20550;-64
2022/01/16 09:43:20;;;;;;;89.97;44.92;;;;;;;4.44;78.67;102424.25;5097013;27;20401;-63
2022/01/16 09:45:46;;;;;;;88.05;45.33;;;;;;;4.42;79.37;102427.19;5099704;27;20077;-62
2022/01/16 09:48:11;;;;;;;92.60;47.08;;;;;;;4.44;79.08;102432.50;5110852;27;20034;-68
2022/01/16 09:50:37;;;;;;;91.28;48.63;;;;;;;4.42;79.49;102434.59;5108058;28;20131;-63
2022/01/16 09:53:03;;;;;;;94.20;47.70;;;;;;;4.39;79.91;102432.19;5101454;27;20044;-65
2022/01/16 09:55:28;;;;;;;94.32;47.92;;;;;;;4.41;79.74;102431.00;5098070;28;20089;-65
2022/01/16 09:58:00;;;;;;;97.82;49.15;;;;;;;4.44;79.64;102440.75;5110049;28;20040;-65
2022/01/16 10:00:27;;;;;;;94.93;48.17;;;;;;;4.47;79.61;102442.31;5107080;28;20497;-65
2022/01/16 10:02:53;;;;;;;95.60;48.60;;;;;;;4.47;79.68;102451.41;5105012;28;20023;-66
2022/01/16 10:05:23;;;;;;;99.85;49.40;;;;;;;4.50;79.64;102447.47;5114651;27;20031;-66
2022/01/16 10:07:49;;;;;;;101.03;49.97;;;;;;;4.52;79.72;102454.53;5103714;28;20035;-65
2022/01/16 10:10:15;;;;;;;100.80;49.22;;;;;;;4.54;80.08;102463.44;5105003;28;20127;-64
2022/01/16 10:12:47;;;;;;;97.47;48.28;;;;;;;4.55;79.98;102470.66;5111540;27;20020;-63
2022/01/16 10:15:21;;;;;;;98.07;47.05;;;;;;;4.58;79.75;102462.06;5095958;28;20028;-63
2022/01/16 10:17:48;;;;;;;98.25;47.58;;;;;;;4.57;79.78;102468.59;5100978;28;20054;-63
2022/01/16 10:20:18;;;;;;;99.18;47.25;;;;;;;4.59;79.74;102468.41;5108620;28;20051;-62
2022/01/16 10:22:49;;;;;;;98.35;47.15;;;;;;;4.57;80.13;102478.75;5102180;28;20024;-62
2022/01/16 10:25:33;;;;;;;102.05;49.22;;;;;;;4.57;80.05;102476.00;5110923;28;20084;-63
2022/01/16 10:28:02;;;;;;;101.93;47.88;;;;;;;4.57;80.27;102476.84;5100869;28;20031;-61
2022/01/16 10:30:42;;;;;;;105.38;53.08;;;;;;;4.61;80.27;102469.97;5103423;28;20032;-62
2022/01/16 10:33:15;;;;;;;103.53;48.90;;;;;;;4.62;80.58;102470.81;5105786;28;20478;-62
2022/01/16 10:35:43;;;;;;;101.05;47.13;;;;;;;4.66;80.86;102472.19;5101908;28;20110;-63
2022/01/16 10:38:17;;;;;;;101.50;46.58;;;;;;;4.66;80.41;102472.19;5104321;28;20033;-64
2022/01/16 10:40:44;;;;;;;96.60;45.45;;;;;;;4.68;80.35;102482.00;5105536;28;20548;-64
2022/01/16 10:43:16;;;;;;;101.00;47.60;;;;;;;4.68;80.43;102482.00;5106820;28;20032;-64
2022/01/16 10:45:44;;;;;;;101.07;46.87;;;;;;;4.72;80.03;102481.66;5110106;27;20026;-64
2022/01/16 10:48:10;;;;;;;99.22;46.17;;;;;;;4.72;80.53;102476.16;5109079;27;20046;-63
2022/01/16 10:50:43;;;;;;;105.03;46.17;;;;;;;4.74;80.20;102472.16;5104993;27;20057;-63
2022/01/16 10:53:12;;;;;;;99.60;46.00;;;;;;;4.72;80.20;102476.16;5099966;27;20020;-64
2022/01/16 10:55:40;;;;;;;94.60;44.38;;;;;;;4.78;80.44;102481.78;5094344;28;20072;-64
2022/01/16 10:58:17;;;;;;;93.60;46.10;;;;;;;4.83;80.40;102478.50;5096148;27;20039;-65
2022/01/16 11:00:54;;;;;;;92.65;45.22;;;;;;;4.87;79.96;102482.63;5110828;27;20077;-64
2022/01/16 11:03:21;;;;;;;93.30;43.08;;;;;;;4.88;80.12;102484.38;5108926;27;20027;-65
2022/01/16 11:05:49;;;;;;;92.80;44.88;;;;;;;4.89;79.93;102483.31;5091318;28;20023;-64
2022/01/16 11:08:20;;;;;;;92.53;43.20;;;;;;;4.92;80.18;102483.84;5101704;28;20028;-64
2022/01/16 11:10:52;;;;;;;91.80;44.78;;;;;;;4.95;80.04;102492.75;5093800;28;20047;-65
2022/01/16 11:13:20;;;;;;;92.43;45.05;;;;;;;4.96;79.77;102483.50;5095427;28;20392;-63
2022/01/16 11:15:48;;;;;;;91.63;42.70;;;;;;;4.97;80.12;102496.19;5103147;28;20076;-63
2022/01/16 11:18:15;;;;;;;90.03;44.60;;;;;;;4.95;80.01;102501.00;5105304;28;20035;-65
2022/01/16 11:20:44;;;;;;;89.47;43.22;;;;;;;4.95;79.88;102496.34;5102045;28;20031;-64
2022/01/16 11:23:28;;;;;;;87.40;42.00;;;;;;;4.97;80.23;102487.94;5108068;27;20019;-64
2022/01/16 11:26:05;;;;;;;89.25;42.53;;;;;;;4.99;80.25;102489.50;5099446;28;20035;-65
2022/01/16 11:28:31;;;;;;;89.40;43.70;;;;;;;5.03;80.08;102485.34;5103845;28;20024;-64
2022/01/16 11:31:05;;;;;;;88.80;42.03;;;;;;;5.04;79.83;102492.56;5114851;27;20058;-65
2022/01/16 11:33:33;;;;;;;86.25;41.50;;;;;;;5.04;79.85;102492.56;5093428;27;20577;-64
2022/01/16 11:36:01;;;;;;;87.13;42.75;;;;;;;5.05;79.40;102494.28;5105363;28;20492;-65
2022/01/16 11:38:30;;;;;;;91.70;42.47;;;;;;;5.05;79.73;102488.78;5096412;28;20028;-64
2022/01/16 11:40:56;;;;;;;85.90;44.35;;;;;;;5.06;79.67;102492.38;5093332;28;20028;-65
2022/01/16 11:43:34;;;;;;;94.80;46.60;;;;;;;5.02;79.76;102491.88;5101930;28;21376;-64
2022/01/16 11:46:14;;;;;;;88.25;43.70;;;;;;;4.99;80.04;102495.00;5100933;28;20381;-65
2022/01/16 11:48:47;;;;;;;87.43;40.75;;;;;;;5.00;80.29;102490.34;5102852;28;20042;-64
2022/01/16 11:51:31;;;;;;;85.57;43.08;;;;;;;5.05;79.90;102487.91;5102197;28;20036;-65